Time;durP1;ratioP1;P1;durP2;ratioP2;P2;SDS_P1;SDS_P2;PMS_P1;PMS_P2;Temp;Humidity;BMP_temperature;BMP_pressure;BME280_temperature;BME280_humidity;BME280_pressure;Samples;Min_cycle;Max_cycle;Signal;HPM_P1;HPM_P2
2021/12/01 00:01:28;;;;;;;;;0.00;0.00;;;;;9.89;100.00;100131.19;5037240;28;8802;-71
2021/12/01 00:03:54;;;;;;;;;0.00;0.00;;;;;9.87;100.00;100123.31;5036688;28;8786;-71
2021/12/01 00:06:20;;;;;;;;;1.00;1.00;;;;;9.88;100.00;100109.44;5037743;28;8782;-72
2021/12/01 00:08:45;;;;;;;;;2.67;2.67;;;;;9.91;100.00;100106.88;5037203;28;9027;-70
2021/12/01 00:11:10;;;;;;;;;2.00;2.00;;;;;9.89;100.00;100102.50;5036512;28;9518;-70
2021/12/01 00:13:36;;;;;;;;;3.00;2.00;;;;;9.96;100.00;100088.69;5037511;28;8813;-71
2021/12/01 00:16:02;;;;;;;;;3.33;1.00;;;;;9.91;100.00;100086.00;5036813;28;8820;-70
2021/12/01 00:18:28;;;;;;;;;1.00;1.00;;;;;9.86;100.00;100066.81;5036682;28;8897;-71
2021/12/01 00:20:54;;;;;;;;;1.67;1.67;;;;;9.93;100.00;100057.38;5036833;28;9044;-70
2021/12/01 00:23:19;;;;;;;;;1.33;0.67;;;;;10.01;100.00;100060.94;5037390;28;8881;-71
2021/12/01 00:25:45;;;;;;;;;0.33;0.33;;;;;10.00;99.55;100040.94;5036434;28;8794;-71
2021/12/01 00:28:10;;;;;;;;;4.67;2.00;;;;;9.98;99.44;100051.31;5037449;28;8853;-71
2021/12/01 00:30:42;;;;;;;;;1.67;1.00;;;;;9.98;99.13;100029.59;5037246;28;8798;-70
2021/12/01 00:33:10;;;;;;;;;1.00;1.00;;;;;10.03;98.87;100023.56;5036594;28;8863;-70
2021/12/01 00:35:35;;;;;;;;;0.50;0.50;;;;;10.08;98.24;100010.59;5037253;28;8983;-70
2021/12/01 00:38:01;;;;;;;;;3.00;1.00;;;;;10.06;98.01;100018.38;5036940;28;8902;-69
2021/12/01 00:40:26;;;;;;;;;2.33;2.00;;;;;10.07;98.25;100008.84;5036538;28;8774;-70
2021/12/01 00:42:52;;;;;;;;;2.67;2.67;;;;;10.10;97.84;100003.66;5036892;28;8852;-71
2021/12/01 00:45:20;;;;;;;;;3.00;2.00;;;;;10.12;98.29;99991.50;5037236;28;8798;-71
2021/12/01 00:47:49;;;;;;;;;2.00;1.67;;;;;10.14;97.95;100001.13;5036107;28;8774;-70
2021/12/01 00:50:23;;;;;;;;;2.00;2.00;;;;;10.13;98.20;99990.63;5037188;28;9680;-70
2021/12/01 00:52:53;;;;;;;;;1.33;1.33;;;;;10.06;98.34;99968.84;5036067;28;8782;-70
2021/12/01 00:55:18;;;;;;;;;1.67;1.67;;;;;10.06;98.32;99954.94;5037123;28;9678;-70
2021/12/01 00:57:44;;;;;;;;;1.33;1.33;;;;;10.06;98.69;99974.06;5033232;28;8872;-71
2021/12/01 01:00:10;;;;;;;;;2.00;1.00;;;;;10.04;98.96;99967.09;5032968;28;8778;-70
2021/12/01 01:02:36;;;;;;;;;1.00;1.00;;;;;10.07;98.96;99961.91;5033934;28;8806;-71
2021/12/01 01:05:03;;;;;;;;;0.33;0.33;;;;;10.00;99.32;99965.31;5033301;28;8953;-70
2021/12/01 01:07:28;;;;;;;;;2.75;2.25;;;;;10.05;99.11;99943.63;5032728;28;8873;-70
2021/12/01 01:09:54;;;;;;;;;1.00;1.00;;;;;10.05;99.06;99933.19;5033238;28;8786;-70
2021/12/01 01:18:05;;;;;;;;;2.00;2.00;;;;;10.15;95.59;99922.03;5033224;28;9658;-70
2021/12/01 01:20:31;;;;;;;;;1.00;0.00;;;;;10.14;95.72;99925.50;5033413;28;8857;-68
2021/12/01 01:22:56;;;;;;;;;2.67;2.33;;;;;10.10;96.17;99912.38;5032025;28;9031;-69
2021/12/01 01:25:23;;;;;;;;;6.33;2.00;;;;;10.03;96.30;99906.25;5033128;28;8837;-69
2021/12/01 01:27:48;;;;;;;;;0.00;0.00;;;;;10.10;95.61;99900.22;5032988;28;9827;-68
2021/12/01 01:30:13;;;;;;;;;1.00;1.00;;;;;10.15;94.57;99889.84;5032842;28;9521;-68
2021/12/01 01:32:38;;;;;;;;;1.33;1.00;;;;;10.29;93.35;99903.00;5033311;28;8778;-70
2021/12/01 01:35:06;;;;;;;;;2.00;2.00;;;;;10.21;93.98;99894.22;5032309;28;8884;-68
2021/12/01 01:37:31;;;;;;;;;2.00;2.00;;;;;10.13;94.80;99901.97;5033118;28;8782;-69
2021/12/01 01:39:57;;;;;;;;;2.00;2.00;;;;;10.11;94.97;99880.22;5032832;28;9665;-68
2021/12/01 01:42:22;;;;;;;;;2.33;2.00;;;;;10.06;95.35;99869.75;5032595;28;8860;-69
2021/12/01 01:44:47;;;;;;;;;1.00;1.00;;;;;10.10;94.87;99868.91;5032741;28;8794;-69
2021/12/01 01:47:13;;;;;;;;;3.00;2.00;;;;;10.13;94.53;99858.50;5033242;28;8804;-69
2021/12/01 01:49:56;;;;;;;;;1.33;1.33;;;;;10.10;94.72;99853.28;5032330;28;8798;-69
2021/12/01 01:52:22;;;;;;;;;2.00;1.75;;;;;10.16;94.51;99849.84;5033087;28;8809;-68
2021/12/01 01:54:47;;;;;;;;;7.00;2.00;;;;;10.23;93.40;99840.34;5032730;28;8856;-68
2021/12/01 01:57:12;;;;;;;;;1.33;1.33;;;;;10.18;94.05;99845.53;5031791;28;8786;-69
2021/12/01 01:59:38;;;;;;;;;4.00;2.33;;;;;10.11;93.66;99815.03;5032815;28;8813;-68
2021/12/01 02:02:04;;;;;;;;;0.00;0.00;;;;;10.17;93.80;99799.44;5032572;28;8987;-68
2021/12/01 02:04:33;;;;;;;;;1.00;1.00;;;;;10.14;93.84;99812.44;5031770;28;8895;-67
2021/12/01 02:06:58;;;;;;;;;1.00;1.00;;;;;10.12;93.79;99807.19;5032459;28;8841;-68
2021/12/01 02:09:24;;;;;;;;;1.00;0.00;;;;;10.09;93.84;99790.66;5032544;28;9720;-68
2021/12/01 02:11:52;;;;;;;;;1.00;1.00;;;;;10.12;93.88;99788.09;5032211;28;8774;-68
2021/12/01 02:14:18;;;;;;;;;2.00;1.00;;;;;10.11;93.79;99775.91;5032647;28;8832;-66
2021/12/01 02:16:44;;;;;;;;;1.00;1.00;;;;;10.11;93.61;99768.97;5032422;28;8770;-67
2021/12/01 02:19:09;;;;;;;;;2.00;2.00;;;;;10.10;93.56;99758.50;5031941;28;8782;-66
2021/12/01 02:21:35;;;;;;;;;3.00;0.00;;;;;10.11;93.32;99744.63;5032218;28;8983;-67
2021/12/01 02:24:10;;;;;;;;;1.00;1.00;;;;;10.10;93.41;99751.56;5032077;28;8829;-67
2021/12/01 02:26:38;;;;;;;;;2.67;1.00;;;;;10.06;94.00;99752.41;5032457;28;9128;-66
2021/12/01 02:29:06;;;;;;;;;2.00;2.00;;;;;10.10;93.62;99737.66;5032940;28;9057;-67
2021/12/01 02:31:36;;;;;;;;;1.00;1.00;;;;;10.15;93.24;99726.44;5031810;28;9056;-66
2021/12/01 02:34:23;;;;;;;;;2.67;2.67;;;;;10.13;93.57;99733.31;5031847;28;8866;-67
2021/12/01 02:36:52;;;;;;;;;1.25;1.25;;;;;10.11;93.73;99716.81;5031817;28;8942;-66
2021/12/01 02:39:18;;;;;;;;;3.00;3.00;;;;;10.12;93.38;99708.09;5031129;28;8774;-67
2021/12/01 02:41:49;;;;;;;;;0.33;0.33;;;;;10.10;93.75;99693.31;5031749;28;8988;-67
2021/12/01 02:44:17;;;;;;;;;1.67;1.67;;;;;10.12;93.48;99702.03;5031818;28;10971;-68
2021/12/01 02:46:43;;;;;;;;;2.33;2.00;;;;;10.07;93.55;99685.50;5030730;28;8957;-67
2021/12/01 02:49:09;;;;;;;;;2.67;2.67;;;;;10.04;93.83;99694.19;5032008;28;8877;-67
2021/12/01 02:51:37;;;;;;;;;1.00;1.00;;;;;10.02;94.06;99671.56;5031963;28;9000;-66
2021/12/01 02:54:03;;;;;;;;;0.00;0.00;;;;;9.93;94.92;99671.53;5030882;28;8805;-67
2021/12/01 02:56:30;;;;;;;;;2.00;2.00;;;;;9.95;95.07;99656.75;5031893;28;8855;-67
2021/12/01 02:58:59;;;;;;;;;2.33;2.33;;;;;9.88;95.26;99661.06;5031448;28;8857;-67
2021/12/01 03:01:28;;;;;;;;;3.00;2.33;;;;;9.81;95.74;99659.28;5030925;28;9006;-66
2021/12/01 03:03:54;;;;;;;;;3.00;3.00;;;;;9.81;95.75;99654.09;5031259;28;9046;-67
2021/12/01 03:06:21;;;;;;;;;6.33;6.00;;;;;9.79;95.86;99636.66;5031182;28;9196;-67
2021/12/01 03:08:47;;;;;;;;;6.00;6.00;;;;;9.72;95.91;99627.97;5031081;28;8888;-67
2021/12/01 03:11:14;;;;;;;;;5.00;5.00;;;;;9.66;96.59;99626.22;5031389;28;9540;-66
2021/12/01 03:13:40;;;;;;;;;6.67;6.67;;;;;9.64;96.38;99607.06;5030125;28;9939;-67
2021/12/01 03:16:06;;;;;;;;;6.00;6.00;;;;;9.60;96.82;99599.22;5031491;28;9246;-68
2021/12/01 03:18:32;;;;;;;;;6.67;6.67;;;;;9.55;97.05;99583.59;5031479;28;10688;-67
2021/12/01 03:20:58;;;;;;;;;10.00;8.00;;;;;9.51;97.06;99592.25;5029236;28;11563;-67
2021/12/01 03:23:23;;;;;;;;;10.33;9.67;;;;;9.54;96.89;99573.16;5031242;28;8766;-66
2021/12/01 03:25:50;;;;;;;;;6.33;6.33;;;;;9.51;96.78;99574.00;5030936;28;11432;-67
2021/12/01 03:28:16;;;;;;;;;9.67;9.67;;;;;9.50;96.69;99581.81;5030445;28;8812;-67
2021/12/01 03:30:42;;;;;;;;;11.75;11.75;;;;;9.43;97.45;99564.41;5031038;28;9393;-67
2021/12/01 03:33:10;;;;;;;;;5.67;5.67;;;;;9.35;97.73;99545.25;5031416;28;9514;-67
2021/12/01 03:35:41;;;;;;;;;8.50;8.50;;;;;9.31;98.10;99533.06;5030468;28;8847;-67
2021/12/01 03:38:07;;;;;;;;;11.50;11.50;;;;;9.26;98.15;99517.41;5031048;28;9389;-66
2021/12/01 03:40:33;;;;;;;;;9.00;5.00;;;;;9.22;98.51;99523.50;5030998;28;10284;-66
2021/12/01 03:42:58;;;;;;;;;5.00;3.67;;;;;9.18;98.58;99519.97;5030335;28;9391;-65
2021/12/01 03:45:24;;;;;;;;;6.67;6.67;;;;;9.15;98.26;99508.69;5031078;28;8805;-65
2021/12/01 03:47:49;;;;;;;;;6.00;6.00;;;;;9.10;98.41;99500.88;5030535;28;8798;-65
2021/12/01 03:50:15;;;;;;;;;5.00;5.00;;;;;9.10;98.33;99503.47;5030398;28;8766;-65
2021/12/01 03:52:40;;;;;;;;;7.00;6.67;;;;;9.05;98.43;99492.16;5030636;28;8818;-66
2021/12/01 03:55:07;;;;;;;;;5.00;5.00;;;;;9.04;98.46;99495.59;5030838;28;8868;-67
2021/12/01 03:57:33;;;;;;;;;1.00;1.00;;;;;9.04;98.30;99481.72;5030565;28;8802;-67
2021/12/01 03:59:58;;;;;;;;;2.00;2.00;;;;;9.00;98.42;99479.97;5030657;28;9454;-66
2021/12/01 04:02:24;;;;;;;;;5.33;5.33;;;;;8.94;98.61;99470.41;5030587;28;9599;-67
2021/12/01 04:04:49;;;;;;;;;4.67;3.67;;;;;8.92;98.90;99469.53;5029951;28;8852;-67
2021/12/01 04:07:14;;;;;;;;;2.00;2.00;;;;;8.91;99.05;99456.50;5031089;28;8778;-67
2021/12/01 04:09:42;;;;;;;;;6.67;6.67;;;;;8.85;99.25;99452.13;5029599;28;9644;-67
2021/12/01 04:12:08;;;;;;;;;6.00;6.00;;;;;8.84;98.86;99453.00;5030905;28;8817;-67
2021/12/01 04:14:33;;;;;;;;;9.67;9.00;;;;;8.82;99.18;99438.22;5030912;28;9868;-67
2021/12/01 04:16:59;;;;;;;;;8.67;8.67;;;;;8.80;98.80;99435.63;5029834;28;8783;-67
2021/12/01 04:19:24;;;;;;;;;6.33;6.33;;;;;8.78;99.01;99419.13;5030638;28;8786;-67
2021/12/01 04:21:50;;;;;;;;;11.00;7.00;;;;;8.76;99.11;99428.66;5030252;28;8937;-67
2021/12/01 04:24:15;;;;;;;;;11.33;8.00;;;;;8.74;99.09;99409.56;5029801;28;8770;-67
2021/12/01 04:26:43;;;;;;;;;11.00;9.00;;;;;8.73;98.93;99410.44;5030259;28;8798;-67
2021/12/01 04:29:08;;;;;;;;;13.00;10.75;;;;;8.72;99.13;99391.34;5030774;28;8789;-67
2021/12/01 04:31:36;;;;;;;;;7.00;7.00;;;;;8.72;99.20;99399.16;5029929;28;10090;-67
2021/12/01 04:34:03;;;;;;;;;9.67;9.00;;;;;8.72;99.31;99398.28;5034143;28;8794;-67
2021/12/01 04:36:31;;;;;;;;;10.00;9.67;;;;;8.70;99.42;99387.84;5034460;28;9255;-67
2021/12/01 04:38:57;;;;;;;;;4.50;4.50;;;;;8.66;99.35;99374.84;5033186;28;9358;-67
2021/12/01 04:41:24;;;;;;;;;10.75;10.00;;;;;8.71;99.54;99374.00;5033913;28;9371;-67
2021/12/01 04:43:52;;;;;;;;;10.33;10.33;;;;;8.73;99.27;99384.41;5033861;28;11423;-68
2021/12/01 04:46:20;;;;;;;;;11.25;11.25;;;;;8.78;98.93;99361.00;5033591;28;9313;-67
2021/12/01 04:48:45;;;;;;;;;9.25;9.25;;;;;8.72;98.93;99369.66;5033762;28;9483;-66
2021/12/01 04:51:11;;;;;;;;;14.75;12.75;;;;;8.81;98.51;99363.66;5034090;28;9407;-67
2021/12/01 04:53:37;;;;;;;;;4.50;2.75;;;;;8.78;98.56;99371.41;5033355;28;8810;-67
2021/12/01 04:56:04;;;;;;;;;7.25;7.25;;;;;8.79;98.51;99357.53;5033801;28;8774;-67
2021/12/01 04:58:29;;;;;;;;;7.25;6.25;;;;;8.78;98.37;99359.28;5033588;28;9429;-67
2021/12/01 05:00:57;;;;;;;;;14.00;13.50;;;;;8.74;98.74;99347.97;5032810;28;9516;-67
2021/12/01 05:03:22;;;;;;;;;16.00;16.00;;;;;8.76;99.02;99328.91;5033912;28;8829;-67
2021/12/01 05:05:47;;;;;;;;;16.75;15.75;;;;;8.79;99.01;99344.53;5033184;28;9467;-67
2021/12/01 05:08:13;;;;;;;;;22.50;19.00;;;;;8.76;99.19;99324.59;5033032;28;8843;-67
2021/12/01 05:10:38;;;;;;;;;18.50;17.50;;;;;8.80;98.97;99307.25;5033741;28;8786;-67
2021/12/01 05:13:03;;;;;;;;;6.00;6.00;;;;;8.78;98.79;99315.03;5032641;28;8766;-67
2021/12/01 05:15:29;;;;;;;;;17.00;17.00;;;;;8.83;98.58;99305.53;5033389;28;8766;-66
2021/12/01 05:17:54;;;;;;;;;12.00;11.00;;;;;8.84;98.27;99296.00;5032893;28;8798;-67
2021/12/01 05:20:19;;;;;;;;;13.75;13.75;;;;;8.84;98.35;99309.88;5032953;28;8793;-66
2021/12/01 05:22:44;;;;;;;;;15.50;13.50;;;;;8.82;98.50;99298.56;5032562;28;8814;-66
2021/12/01 05:25:11;;;;;;;;;15.33;15.33;;;;;8.82;98.96;99298.56;5033693;28;8778;-66
2021/12/01 05:27:37;;;;;;;;;12.75;12.75;;;;;8.80;98.69;99296.84;5032633;28;8813;-66
2021/12/01 05:30:04;;;;;;;;;15.33;15.33;;;;;8.82;98.63;99295.97;5032895;28;9437;-67
2021/12/01 05:32:31;;;;;;;;;11.00;11.00;;;;;8.85;98.43;99284.72;5033029;28;8778;-67
2021/12/01 05:34:57;;;;;;;;;11.33;10.00;;;;;8.84;98.44;99302.06;5032313;28;9405;-67
2021/12/01 05:37:22;;;;;;;;;9.67;9.67;;;;;8.87;98.59;99288.19;5033078;28;9303;-68
2021/12/01 05:39:47;;;;;;;;;10.67;9.67;;;;;8.78;98.77;99282.94;5032957;28;9565;-67
2021/12/01 05:42:13;;;;;;;;;9.00;8.67;;;;;8.81;98.69;99280.38;5032351;28;8821;-67
2021/12/01 05:44:39;;;;;;;;;7.00;6.00;;;;;8.86;98.87;99287.31;5032591;28;8779;-68
2021/12/01 05:47:05;;;;;;;;;7.67;7.67;;;;;8.86;98.96;99279.50;5032941;28;9609;-67
2021/12/01 05:49:31;;;;;;;;;9.00;9.00;;;;;8.86;98.98;99268.22;5032120;28;10622;-67
2021/12/01 05:51:57;;;;;;;;;5.67;5.67;;;;;8.90;98.55;99270.84;5032349;28;8958;-67
2021/12/01 05:54:22;;;;;;;;;3.67;3.00;;;;;8.93;98.35;99264.78;5032897;28;8790;-67
2021/12/01 05:56:47;;;;;;;;;6.33;6.33;;;;;8.95;98.01;99257.88;5031844;28;9020;-66
2021/12/01 05:59:13;;;;;;;;;3.00;3.00;;;;;8.88;97.62;99224.88;5032879;28;8774;-67
2021/12/01 06:01:38;;;;;;;;;3.00;3.00;;;;;9.01;97.45;99252.66;5032621;28;8825;-67
2021/12/01 06:04:04;;;;;;;;;2.00;2.00;;;;;8.98;97.20;99231.84;5032090;28;8786;-67
2021/12/01 06:06:29;;;;;;;;;3.00;2.67;;;;;9.01;97.60;99242.25;5032556;28;8809;-67
2021/12/01 06:08:56;;;;;;;;;3.67;3.67;;;;;9.01;97.55;99235.31;5032470;28;8828;-68
2021/12/01 06:11:22;;;;;;;;;3.00;2.00;;;;;8.99;97.14;99229.25;5032072;28;8774;-66
2021/12/01 06:13:50;;;;;;;;;7.33;6.33;;;;;9.03;97.47;99230.13;5032362;28;9046;-66
2021/12/01 06:16:19;;;;;;;;;9.67;9.33;;;;;9.04;97.33;99230.09;5031734;28;11491;-67
2021/12/01 06:18:44;;;;;;;;;10.00;7.33;;;;;9.03;97.56;99212.78;5031868;28;9258;-67
2021/12/01 06:21:09;;;;;;;;;6.25;6.25;;;;;9.03;97.64;99209.31;5032021;28;9222;-67
2021/12/01 06:23:35;;;;;;;;;6.00;6.00;;;;;9.03;97.90;99204.09;5031701;28;10015;-67
2021/12/01 06:26:00;;;;;;;;;10.50;10.50;;;;;9.00;97.82;99199.72;5032033;28;8786;-67
2021/12/01 06:28:25;;;;;;;;;6.75;6.75;;;;;-141.35;100.00;57355.97;5032214;28;8797;-67
2021/12/01 06:30:51;;;;;;;;;5.00;5.00;;;;;9.21;94.50;99204.97;5031420;28;8767;-68
2021/12/01 06:33:16;;;;;;;;;5.00;5.00;;;;;9.04;97.26;99211.88;5032284;28;8786;-68
2021/12/01 06:35:47;;;;;;;;;6.67;6.33;;;;;9.02;97.85;99208.44;5031759;28;8809;-69
2021/12/01 06:38:12;;;;;;;;;7.00;7.00;;;;;9.03;97.76;99217.09;5031221;28;9546;-67
2021/12/01 06:40:38;;;;;;;;;6.00;6.00;;;;;9.02;97.85;99203.22;5032043;28;9347;-67
2021/12/01 06:43:03;;;;;;;;;5.00;5.00;;;;;9.01;98.13;99196.28;5031577;28;8814;-67
2021/12/01 06:45:28;;;;;;;;;6.00;5.00;;;;;8.97;98.30;99191.06;5031064;28;9643;-68
2021/12/01 06:47:53;;;;;;;;;6.67;5.33;;;;;8.97;98.37;99186.72;5031479;28;8774;-66
2021/12/01 06:50:19;;;;;;;;;7.67;6.67;;;;;8.98;98.36;99178.06;5031871;28;8801;-66
2021/12/01 06:52:44;;;;;;;;;6.00;3.67;;;;;8.97;98.31;99178.91;5030921;28;8786;-67
2021/12/01 06:55:10;;;;;;;;;4.33;4.33;;;;;8.98;98.17;99185.00;5030986;28;8843;-67
2021/12/01 06:57:35;;;;;;;;;2.00;2.00;;;;;8.98;97.80;99165.03;5031554;28;8809;-68
2021/12/01 07:00:01;;;;;;;;;2.00;2.00;;;;;9.02;97.74;99173.72;5030809;28;8798;-67
2021/12/01 07:02:26;;;;;;;;;0.67;0.67;;;;;8.98;97.69;99149.44;5031448;28;8865;-67
2021/12/01 07:04:52;;;;;;;;;2.67;2.00;;;;;9.01;97.82;99152.03;5031314;28;8900;-67
2021/12/01 07:07:17;;;;;;;;;1.00;1.00;;;;;8.97;97.50;99147.69;5030994;28;9523;-67
2021/12/01 07:09:45;;;;;;;;;1.00;1.00;;;;;9.02;97.53;99166.78;5031426;28;8778;-67
2021/12/01 07:12:11;;;;;;;;;4.33;4.33;;;;;9.08;97.10;99147.69;5031547;28;8777;-67
2021/12/01 07:14:36;;;;;;;;;4.33;3.00;;;;;9.08;97.08;99147.69;5030713;28;9103;-66
2021/12/01 07:17:02;;;;;;;;;4.33;2.33;;;;;9.12;97.01;99144.22;5031027;28;9112;-67
2021/12/01 07:19:27;;;;;;;;;3.00;3.00;;;;;9.14;96.90;99140.75;5031086;28;8798;-68
2021/12/01 07:21:52;;;;;;;;;1.00;1.00;;;;;9.13;96.77;99144.22;5022667;28;8853;-65
2021/12/01 07:24:21;;;;;;;;;3.00;2.00;;;;;9.15;96.64;99124.25;5046046;28;8894;-65
2021/12/01 07:26:46;;;;;;;;;4.33;4.33;;;;;9.24;96.88;99139.00;5048937;28;8819;-66
2021/12/01 07:29:12;;;;;;;;;6.67;4.33;;;;;9.20;97.07;99130.34;5050813;28;9212;-65
2021/12/01 07:31:37;;;;;;;;;5.00;2.00;;;;;9.20;97.19;99134.66;5051169;28;9643;-66
2021/12/01 07:34:03;;;;;;;;;7.00;6.00;;;;;9.14;97.06;99114.72;5049648;28;8799;-65
2021/12/01 07:36:28;;;;;;;;;2.00;2.00;;;;;9.15;96.68;99134.66;5040532;28;8814;-66
2021/12/01 07:38:53;;;;;;;;;3.67;3.67;;;;;9.06;97.29;99131.22;5030694;28;9560;-65
2021/12/01 07:41:20;;;;;;;;;5.00;3.00;;;;;9.10;96.47;99145.97;5049727;28;8922;-65
2021/12/01 07:43:46;;;;;;;;;2.67;2.00;;;;;9.18;96.24;99178.06;5050637;28;8882;-66
2021/12/01 07:46:12;;;;;;;;;1.00;1.00;;;;;9.12;92.95;99183.25;5046535;28;9443;-66
2021/12/01 07:48:37;;;;;;;;;5.67;4.33;;;;;8.85;92.48;99178.03;5029842;28;8803;-65
2021/12/01 07:51:04;;;;;;;;;1.00;1.00;;;;;8.61;91.88;99178.84;5045415;28;8804;-65
2021/12/01 07:53:29;;;;;;;;;2.00;2.00;;;;;8.57;90.95;99200.50;5050857;28;8831;-66
2021/12/01 07:55:54;;;;;;;;;5.33;5.00;;;;;8.35;91.61;99173.59;5049419;28;8854;-65
2021/12/01 07:58:19;;;;;;;;;3.67;2.33;;;;;8.48;91.35;99164.06;5050790;28;8780;-64
2021/12/01 08:00:45;;;;;;;;;3.00;2.00;;;;;8.49;90.91;99171.88;5033965;28;8908;-65
2021/12/01 08:03:10;;;;;;;;;2.33;1.00;;;;;8.53;90.84;99170.16;5029352;28;8814;-64
2021/12/01 08:05:35;;;;;;;;;1.00;1.00;;;;;8.55;91.01;99182.28;5030549;28;8804;-65
2021/12/01 08:08:01;;;;;;;;;1.67;1.67;;;;;8.79;88.87;99172.81;5034135;28;8870;-64
2021/12/01 08:10:26;;;;;;;;;0.67;0.67;;;;;8.79;88.42;99181.50;5033193;28;8926;-66
2021/12/01 08:12:51;;;;;;;;;1.00;1.00;;;;;8.81;88.04;99181.50;5034015;28;8803;-65
2021/12/01 08:15:17;;;;;;;;;2.00;2.00;;;;;8.94;86.67;99188.44;5034482;28;9586;-65
2021/12/01 08:17:42;;;;;;;;;2.00;2.00;;;;;8.79;87.04;99201.44;5032460;28;8844;-64
2021/12/01 08:20:08;;;;;;;;;1.67;1.00;;;;;8.61;88.90;99195.34;5043821;28;8796;-65
2021/12/01 08:22:34;;;;;;;;;1.00;0.00;;;;;8.63;88.90;99205.72;5053715;28;8866;-67
2021/12/01 08:24:59;;;;;;;;;2.00;2.00;;;;;8.58;89.33;99190.13;5053003;28;8876;-63
2021/12/01 08:27:26;;;;;;;;;2.00;2.00;;;;;8.58;89.98;99203.13;5053704;28;8830;-63
2021/12/01 08:29:52;;;;;;;;;1.00;0.00;;;;;8.56;90.44;99219.56;5050857;28;8822;-63
2021/12/01 08:32:17;;;;;;;;;1.00;0.00;;;;;8.61;89.13;99200.53;5053431;28;8961;-62
2021/12/01 08:34:47;;;;;;;;;0.00;0.00;;;;;8.51;88.45;99206.56;5053826;28;9562;-63
2021/12/01 08:37:14;;;;;;;;;0.00;0.00;;;;;8.42;88.32;99197.88;5053213;28;8808;-64
2021/12/01 08:39:39;;;;;;;;;1.33;1.00;;;;;8.41;88.81;99178.78;5046603;28;8879;-65
2021/12/01 08:42:05;;;;;;;;;0.00;0.00;;;;;8.35;88.08;99196.09;5034044;28;9047;-64
2021/12/01 08:44:30;;;;;;;;;0.00;0.00;;;;;8.24;88.67;99199.50;5032905;28;8787;-64
2021/12/01 08:46:55;;;;;;;;;1.00;1.00;;;;;8.26;88.77;99205.56;5032877;28;8799;-64
2021/12/01 08:49:20;;;;;;;;;0.67;0.33;;;;;8.26;89.19;99202.97;5034827;28;8840;-63
2021/12/01 08:51:46;;;;;;;;;1.00;0.00;;;;;8.27;89.93;99207.31;5052511;28;8874;-64
2021/12/01 08:54:13;;;;;;;;;0.67;0.67;;;;;8.26;91.07;99231.56;5053570;28;8776;-63
2021/12/01 08:56:40;;;;;;;;;0.33;0.00;;;;;8.22;91.72;99223.75;5053353;28;8788;-64
2021/12/01 08:59:05;;;;;;;;;0.00;0.00;;;;;8.17;91.93;99212.47;5049767;28;8884;-63
2021/12/01 09:01:31;;;;;;;;;1.67;0.33;;;;;8.10;92.24;99216.75;5032917;28;9067;-62
2021/12/01 09:03:56;;;;;;;;;0.00;0.00;;;;;8.11;92.40;99236.69;5033461;28;8822;-61
2021/12/01 09:06:23;;;;;;;;;0.00;0.00;;;;;8.10;92.34;99223.66;5031227;28;8835;-64
2021/12/01 09:08:49;;;;;;;;;0.67;0.67;;;;;8.25;91.44;99248.00;5030827;28;8788;-63
2021/12/01 09:11:14;;;;;;;;;0.67;0.00;;;;;8.33;90.64;99252.41;5049773;28;9119;-61
2021/12/01 09:13:39;;;;;;;;;1.00;1.00;;;;;8.26;90.98;99265.34;5052226;28;8898;-64
2021/12/01 09:16:05;;;;;;;;;0.00;0.00;;;;;8.21;91.72;99269.66;5049644;28;8802;-62
2021/12/01 09:18:31;;;;;;;;;0.33;0.33;;;;;8.15;91.95;99253.16;5032289;28;8816;-63
2021/12/01 09:20:58;;;;;;;;;0.00;0.00;;;;;8.14;92.19;99256.63;5046076;28;8820;-63
2021/12/01 09:23:23;;;;;;;;;0.00;0.00;;;;;8.12;92.48;99271.34;5052649;28;8970;-63
2021/12/01 09:25:49;;;;;;;;;1.00;1.00;;;;;8.10;92.38;99265.25;5052781;28;8801;-64
2021/12/01 09:28:17;;;;;;;;;0.00;0.00;;;;;8.00;92.87;99276.47;5034279;28;8819;-65
2021/12/01 09:30:44;;;;;;;;;1.00;1.00;;;;;7.96;93.28;99275.56;5030202;28;11455;-64
2021/12/01 09:33:10;;;;;;;;;1.00;1.00;;;;;7.89;91.68;99270.31;5032648;28;9071;-63
2021/12/01 09:35:35;;;;;;;;;2.33;2.33;;;;;7.88;91.88;99277.25;5033015;28;9141;-65
2021/12/01 09:38:00;;;;;;;;;1.00;1.00;;;;;7.89;91.87;99273.78;5032390;28;8811;-64
2021/12/01 09:40:26;;;;;;;;;1.00;1.00;;;;;7.94;92.07;99272.09;5043221;28;8834;-63
2021/12/01 09:42:54;;;;;;;;;0.00;0.00;;;;;8.05;90.59;99272.16;5052457;28;8897;-62
2021/12/01 09:45:22;;;;;;;;;0.67;0.67;;;;;8.08;90.55;99277.38;5052002;28;8763;-63
2021/12/01 09:47:49;;;;;;;;;0.00;0.00;;;;;8.11;89.87;99272.19;5051641;28;9129;-64
2021/12/01 09:50:14;;;;;;;;;0.00;0.00;;;;;8.12;90.00;99282.63;5039931;28;9024;-64
2021/12/01 09:52:40;;;;;;;;;0.67;0.67;;;;;8.14;89.26;99285.19;5032285;28;9165;-64
2021/12/01 09:55:07;;;;;;;;;1.00;1.00;;;;;8.11;88.82;99291.25;5032203;28;8760;-65
2021/12/01 09:57:33;;;;;;;;;1.00;1.00;;;;;8.07;89.82;99288.63;5032447;28;8819;-65
2021/12/01 09:59:59;;;;;;;;;1.00;1.00;;;;;7.95;89.96;99281.63;5029610;28;9285;-64
2021/12/01 10:02:25;;;;;;;;;1.67;1.67;;;;;8.01;91.14;99279.09;5031534;28;9310;-62
2021/12/01 10:04:51;;;;;;;;;1.33;1.00;;;;;8.00;91.31;99292.91;5032285;28;8756;-64
2021/12/01 10:07:22;;;;;;;;;0.00;0.00;;;;;8.01;90.57;99284.28;5038413;28;9242;-64
2021/12/01 10:09:52;;;;;;;;;0.67;0.67;;;;;8.03;91.54;99290.34;5048873;28;9110;-65
2021/12/01 10:12:18;;;;;;;;;4.33;2.33;;;;;8.05;91.34;99279.97;5051976;28;8943;-65
2021/12/01 10:14:45;;;;;;;;;1.00;1.00;;;;;8.08;91.05;99279.97;5051518;28;9020;-65
2021/12/01 10:17:14;;;;;;;;;1.00;1.00;;;;;8.15;91.17;99280.03;5039496;28;8780;-65
2021/12/01 10:19:39;;;;;;;;;0.00;0.00;;;;;8.13;91.03;99276.56;5028674;28;9047;-65
2021/12/01 10:22:09;;;;;;;;;3.67;1.67;;;;;8.22;90.79;99280.94;5031583;28;9005;-63
2021/12/01 10:24:37;;;;;;;;;2.00;1.00;;;;;8.25;89.46;99283.53;5031333;28;8838;-64
2021/12/01 10:27:12;;;;;;;;;2.00;1.00;;;;;8.27;89.93;99277.50;5031164;28;8999;-64
2021/12/01 10:29:48;;;;;;;;;3.67;1.67;;;;;8.32;88.22;99277.56;5030228;28;9035;-64
2021/12/01 10:32:18;;;;;;;;;0.67;0.67;;;;;8.41;89.19;99271.53;5031998;28;9116;-64
2021/12/01 10:34:52;;;;;;;;;0.00;0.00;;;;;8.45;88.97;99262.88;5031798;28;9047;-64
2021/12/01 10:37:29;;;;;;;;;0.00;0.00;;;;;8.54;88.23;99261.22;5038242;28;9139;-63
2021/12/01 10:40:20;;;;;;;;;2.00;0.67;;;;;8.54;88.28;99265.53;5049338;28;9153;-65
2021/12/01 10:42:54;;;;;;;;;0.00;0.00;;;;;8.57;88.81;99274.22;5050577;28;9072;-63
2021/12/01 10:45:22;;;;;;;;;1.00;0.00;;;;;8.54;87.65;99275.94;5050546;28;9022;-64
2021/12/01 10:47:48;;;;;;;;;1.00;1.00;;;;;8.51;87.86;99261.16;5050936;28;9153;-64
2021/12/01 10:50:19;;;;;;;;;1.00;0.00;;;;;8.50;87.42;99263.78;5039409;28;9901;-63
2021/12/01 10:52:49;;;;;;;;;0.67;0.67;;;;;8.47;86.53;99266.38;5030541;28;8825;-64
2021/12/01 10:55:23;;;;;;;;;1.00;1.00;;;;;8.48;86.18;99273.28;5031313;28;8953;-63
2021/12/01 10:57:55;;;;;;;;;1.33;0.33;;;;;8.46;85.65;99268.09;5040278;28;9045;-63
2021/12/01 11:00:30;;;;;;;;;1.33;0.67;;;;;8.48;85.44;99268.09;5033569;28;9031;-64
2021/12/01 11:03:07;;;;;;;;;3.33;3.00;;;;;8.49;85.48;99275.03;5030909;28;9325;-64
2021/12/01 11:05:36;;;;;;;;;1.00;1.00;;;;;8.49;84.83;99273.31;5030931;28;9106;-63
2021/12/01 11:08:18;;;;;;;;;1.33;1.33;;;;;8.43;85.37;99269.81;5030659;28;9039;-63
2021/12/01 11:10:45;;;;;;;;;2.67;0.67;;;;;8.43;84.77;99278.50;5030890;28;9149;-71
2021/12/01 11:13:12;;;;;;;;;1.00;1.00;;;;;8.45;84.93;99284.56;5012105;28;9050;-63
2021/12/01 11:15:43;;;;;;;;;0.00;0.00;;;;;8.51;84.64;99273.34;5030972;28;9162;-62
2021/12/01 11:18:18;;;;;;;;;3.00;2.00;;;;;8.54;84.54;99265.53;5030940;28;8936;-61
2021/12/01 11:20:49;;;;;;;;;1.00;1.00;;;;;8.55;84.27;99268.13;5029882;28;9026;-63
2021/12/01 11:23:23;;;;;;;;;1.00;0.33;;;;;8.66;82.65;99278.59;5030451;28;9236;-61
2021/12/01 11:26:10;;;;;;;;;0.00;0.00;;;;;8.65;82.49;99267.31;5030208;28;9009;-62
2021/12/01 11:28:47;;;;;;;;;1.33;0.67;;;;;8.57;83.89;99270.75;5030626;28;8957;-62
2021/12/01 11:31:22;;;;;;;;;1.00;1.00;;;;;8.67;83.30;99262.09;5030745;28;9000;-62
2021/12/01 11:33:49;;;;;;;;;1.33;1.00;;;;;8.72;82.64;99260.41;5029681;28;9057;-62
2021/12/01 11:36:18;;;;;;;;;0.33;0.00;;;;;8.72;82.57;99266.47;5030983;28;9032;-61
2021/12/01 11:38:49;;;;;;;;;2.00;2.00;;;;;8.71;82.86;99258.66;5030416;28;9034;-63
2021/12/01 11:41:14;;;;;;;;;1.25;1.00;;;;;8.71;83.25;99258.66;5029532;28;9012;-62
2021/12/01 11:43:40;;;;;;;;;2.00;1.00;;;;;8.73;82.34;99257.78;5030389;28;8794;-63
2021/12/01 11:46:07;;;;;;;;;1.00;0.33;;;;;8.73;82.87;99260.38;5030785;28;8890;-62
2021/12/01 11:49:09;;;;;;;;;3.00;0.00;;;;;8.78;82.22;99259.53;5030023;28;11386;-63
2021/12/01 11:51:46;;;;;;;;;1.00;1.00;;;;;8.77;82.66;99265.63;5030767;28;8957;-62